sensor_id;sensor_type;location;lat;lon;timestamp;temperature;humidity
30520;DHT22;17300;50.374;8.006;2023-12-14T00:00:52;11.20;55.90
30520;DHT22;17300;50.374;8.006;2023-12-14T00:03:19;11.20;55.80
30520;DHT22;17300;50.374;8.006;2023-12-14T00:05:47;11.30;56.00
30520;DHT22;17300;50.374;8.006;2023-12-14T00:08:13;11.30;56.00
30520;DHT22;17300;50.374;8.006;2023-12-14T00:10:40;11.30;55.90
30520;DHT22;17300;50.374;8.006;2023-12-14T00:13:07;11.20;55.90
30520;DHT22;17300;50.374;8.006;2023-12-14T00:15:33;11.30;56.00
30520;DHT22;17300;50.374;8.006;2023-12-14T00:18:00;11.30;56.00
30520;DHT22;17300;50.374;8.006;2023-12-14T00:20:27;11.30;55.90
30520;DHT22;17300;50.374;8.006;2023-12-14T00:22:55;11.30;55.70
30520;DHT22;17300;50.374;8.006;2023-12-14T00:25:21;11.30;55.70
30520;DHT22;17300;50.374;8.006;2023-12-14T00:27:48;11.30;55.70
30520;DHT22;17300;50.374;8.006;2023-12-14T00:30:15;11.30;55.70
30520;DHT22;17300;50.374;8.006;2023-12-14T00:32:41;11.30;55.50
30520;DHT22;17300;50.374;8.006;2023-12-14T00:35:08;11.30;55.40
30520;DHT22;17300;50.374;8.006;2023-12-14T00:37:34;11.30;55.30
30520;DHT22;17300;50.374;8.006;2023-12-14T00:40:03;11.20;55.20
30520;DHT22;17300;50.374;8.006;2023-12-14T00:42:30;11.20;55.90
30520;DHT22;17300;50.374;8.006;2023-12-14T00:44:56;11.20;55.30
30520;DHT22;17300;50.374;8.006;2023-12-14T00:47:23;11.20;55.90
30520;DHT22;17300;50.374;8.006;2023-12-14T00:49:49;11.20;55.40
30520;DHT22;17300;50.374;8.006;2023-12-14T00:52:15;11.20;55.40
30520;DHT22;17300;50.374;8.006;2023-12-14T00:54:42;11.20;55.40
30520;DHT22;17300;50.374;8.006;2023-12-14T00:57:10;11.20;55.40
30520;DHT22;17300;50.374;8.006;2023-12-14T00:59:37;11.20;55.40
30520;DHT22;17300;50.374;8.006;2023-12-14T01:02:04;11.20;55.40
30520;DHT22;17300;50.374;8.006;2023-12-14T01:04:30;11.30;55.40
30520;DHT22;17300;50.374;8.006;2023-12-14T01:06:57;11.30;55.40
30520;DHT22;17300;50.374;8.006;2023-12-14T01:09:24;11.30;55.30
30520;DHT22;17300;50.374;8.006;2023-12-14T01:11:50;11.30;55.30
30520;DHT22;17300;50.374;8.006;2023-12-14T01:14:18;11.30;55.30
30520;DHT22;17300;50.374;8.006;2023-12-14T01:16:45;11.30;55.20
30520;DHT22;17300;50.374;8.006;2023-12-14T01:19:12;11.30;55.20
30520;DHT22;17300;50.374;8.006;2023-12-14T01:21:38;11.30;55.20
30520;DHT22;17300;50.374;8.006;2023-12-14T01:24:05;11.30;55.20
30520;DHT22;17300;50.374;8.006;2023-12-14T01:26:32;11.30;55.10
30520;DHT22;17300;50.374;8.006;2023-12-14T01:28:59;11.30;55.10
30520;DHT22;17300;50.374;8.006;2023-12-14T01:31:27;11.30;55.10
30520;DHT22;17300;50.374;8.006;2023-12-14T01:33:53;11.30;55.10
30520;DHT22;17300;50.374;8.006;2023-12-14T01:36:20;11.30;55.10
30520;DHT22;17300;50.374;8.006;2023-12-14T01:38:48;11.30;55.10
30520;DHT22;17300;50.374;8.006;2023-12-14T01:41:14;11.20;54.90
30520;DHT22;17300;50.374;8.006;2023-12-14T01:43:41;11.30;55.00
30520;DHT22;17300;50.374;8.006;2023-12-14T01:46:08;11.20;54.90
30520;DHT22;17300;50.374;8.006;2023-12-14T01:48:36;11.20;54.90
30520;DHT22;17300;50.374;8.006;2023-12-14T01:51:03;11.20;54.80
30520;DHT22;17300;50.374;8.006;2023-12-14T01:53:30;11.20;54.80
30520;DHT22;17300;50.374;8.006;2023-12-14T01:55:57;11.20;54.70
30520;DHT22;17300;50.374;8.006;2023-12-14T01:58:23;11.20;54.70
30520;DHT22;17300;50.374;8.006;2023-12-14T02:00:56;11.20;54.70
30520;DHT22;17300;50.374;8.006;2023-12-14T02:03:25;11.20;54.80
30520;DHT22;17300;50.374;8.006;2023-12-14T02:05:53;11.20;54.70
30520;DHT22;17300;50.374;8.006;2023-12-14T02:08:19;11.20;54.60
30520;DHT22;17300;50.374;8.006;2023-12-14T02:10:46;11.20;54.70
30520;DHT22;17300;50.374;8.006;2023-12-14T02:13:13;11.10;54.60
30520;DHT22;17300;50.374;8.006;2023-12-14T02:15:40;11.20;54.60
30520;DHT22;17300;50.374;8.006;2023-12-14T02:18:07;11.10;54.60
30520;DHT22;17300;50.374;8.006;2023-12-14T02:20:33;11.10;54.60
30520;DHT22;17300;50.374;8.006;2023-12-14T02:23:01;11.10;54.60
30520;DHT22;17300;50.374;8.006;2023-12-14T02:25:28;11.10;54.60
30520;DHT22;17300;50.374;8.006;2023-12-14T02:27:54;11.10;54.60
30520;DHT22;17300;50.374;8.006;2023-12-14T02:30:21;11.10;54.60
30520;DHT22;17300;50.374;8.006;2023-12-14T02:32:48;11.10;54.70
30520;DHT22;17300;50.374;8.006;2023-12-14T02:35:14;11.10;54.70
30520;DHT22;17300;50.374;8.006;2023-12-14T02:37:43;11.10;54.70
30520;DHT22;17300;50.374;8.006;2023-12-14T02:40:11;11.10;54.70
30520;DHT22;17300;50.374;8.006;2023-12-14T02:42:38;11.10;54.70
30520;DHT22;17300;50.374;8.006;2023-12-14T02:45:06;11.10;54.60
30520;DHT22;17300;50.374;8.006;2023-12-14T02:47:33;11.10;54.60
30520;DHT22;17300;50.374;8.006;2023-12-14T02:50:00;11.10;54.50
30520;DHT22;17300;50.374;8.006;2023-12-14T02:52:26;11.10;54.50
30520;DHT22;17300;50.374;8.006;2023-12-14T02:54:53;11.10;54.40
30520;DHT22;17300;50.374;8.006;2023-12-14T02:57:30;11.10;54.40
30520;DHT22;17300;50.374;8.006;2023-12-14T02:59:57;11.10;54.50
30520;DHT22;17300;50.374;8.006;2023-12-14T03:02:23;11.10;54.50
30520;DHT22;17300;50.374;8.006;2023-12-14T03:04:50;11.10;54.60
30520;DHT22;17300;50.374;8.006;2023-12-14T03:07:17;11.10;54.60
30520;DHT22;17300;50.374;8.006;2023-12-14T03:09:44;11.10;55.20
30520;DHT22;17300;50.374;8.006;2023-12-14T03:12:11;11.10;54.60
30520;DHT22;17300;50.374;8.006;2023-12-14T03:14:39;11.10;54.60
30520;DHT22;17300;50.374;8.006;2023-12-14T03:17:07;11.10;54.60
30520;DHT22;17300;50.374;8.006;2023-12-14T03:19:38;11.10;54.70
30520;DHT22;17300;50.374;8.006;2023-12-14T03:22:04;11.10;54.60
30520;DHT22;17300;50.374;8.006;2023-12-14T03:24:31;11.10;54.60
30520;DHT22;17300;50.374;8.006;2023-12-14T03:26:58;11.10;54.60
30520;DHT22;17300;50.374;8.006;2023-12-14T03:29:24;11.10;54.60
30520;DHT22;17300;50.374;8.006;2023-12-14T03:31:52;11.10;54.60
30520;DHT22;17300;50.374;8.006;2023-12-14T03:34:19;11.10;54.60
30520;DHT22;17300;50.374;8.006;2023-12-14T03:36:45;11.10;54.50
30520;DHT22;17300;50.374;8.006;2023-12-14T03:39:12;11.10;54.50
30520;DHT22;17300;50.374;8.006;2023-12-14T03:41:39;11.10;54.40
30520;DHT22;17300;50.374;8.006;2023-12-14T03:44:05;11.20;54.50
30520;DHT22;17300;50.374;8.006;2023-12-14T03:46:32;11.20;54.80
30520;DHT22;17300;50.374;8.006;2023-12-14T03:49:01;11.20;54.50
30520;DHT22;17300;50.374;8.006;2023-12-14T03:51:27;11.20;54.60
30520;DHT22;17300;50.374;8.006;2023-12-14T03:53:54;11.20;54.60
30520;DHT22;17300;50.374;8.006;2023-12-14T03:56:21;11.20;54.60
30520;DHT22;17300;50.374;8.006;2023-12-14T03:58:47;11.20;54.60
30520;DHT22;17300;50.374;8.006;2023-12-14T04:01:17;11.20;54.60
30520;DHT22;17300;50.374;8.006;2023-12-14T04:03:44;11.20;54.60
30520;DHT22;17300;50.374;8.006;2023-12-14T04:06:12;11.20;54.70
30520;DHT22;17300;50.374;8.006;2023-12-14T04:08:39;11.20;54.80
30520;DHT22;17300;50.374;8.006;2023-12-14T04:11:06;11.20;54.80
30520;DHT22;17300;50.374;8.006;2023-12-14T04:13:33;11.20;54.80
30520;DHT22;17300;50.374;8.006;2023-12-14T04:16:00;11.20;54.60
30520;DHT22;17300;50.374;8.006;2023-12-14T04:18:26;11.20;54.60
30520;DHT22;17300;50.374;8.006;2023-12-14T04:20:53;11.20;54.60
30520;DHT22;17300;50.374;8.006;2023-12-14T04:23:21;11.20;54.60
30520;DHT22;17300;50.374;8.006;2023-12-14T04:25:48;11.20;54.70
30520;DHT22;17300;50.374;8.006;2023-12-14T04:28:15;11.20;54.70
30520;DHT22;17300;50.374;8.006;2023-12-14T04:30:41;11.30;54.90
30520;DHT22;17300;50.374;8.006;2023-12-14T04:33:08;11.30;54.80
30520;DHT22;17300;50.374;8.006;2023-12-14T04:35:34;11.30;54.80
30520;DHT22;17300;50.374;8.006;2023-12-14T04:38:02;11.30;54.80
30520;DHT22;17300;50.374;8.006;2023-12-14T04:40:30;11.30;54.80
30520;DHT22;17300;50.374;8.006;2023-12-14T04:42:58;11.30;54.70
30520;DHT22;17300;50.374;8.006;2023-12-14T04:45:25;11.30;54.70
30520;DHT22;17300;50.374;8.006;2023-12-14T04:47:51;11.30;54.80
30520;DHT22;17300;50.374;8.006;2023-12-14T04:50:18;11.30;54.80
30520;DHT22;17300;50.374;8.006;2023-12-14T04:52:45;11.30;54.80
30520;DHT22;17300;50.374;8.006;2023-12-14T04:55:12;11.30;54.80
30520;DHT22;17300;50.374;8.006;2023-12-14T04:57:40;11.30;54.80
30520;DHT22;17300;50.374;8.006;2023-12-14T05:00:08;11.40;54.90
30520;DHT22;17300;50.374;8.006;2023-12-14T05:02:35;11.30;54.90
30520;DHT22;17300;50.374;8.006;2023-12-14T05:05:01;11.40;54.90
30520;DHT22;17300;50.374;8.006;2023-12-14T05:07:28;11.40;55.00
30520;DHT22;17300;50.374;8.006;2023-12-14T05:09:55;11.40;54.90
30520;DHT22;17300;50.374;8.006;2023-12-14T05:12:22;11.40;54.90
30520;DHT22;17300;50.374;8.006;2023-12-14T05:14:52;11.40;54.90
30520;DHT22;17300;50.374;8.006;2023-12-14T05:17:18;11.40;54.90
30520;DHT22;17300;50.374;8.006;2023-12-14T05:19:45;11.40;55.00
30520;DHT22;17300;50.374;8.006;2023-12-14T05:22:12;11.40;55.00
30520;DHT22;17300;50.374;8.006;2023-12-14T05:24:39;11.40;55.00
30520;DHT22;17300;50.374;8.006;2023-12-14T05:27:06;11.40;55.00
30520;DHT22;17300;50.374;8.006;2023-12-14T05:29:32;11.40;55.00
30520;DHT22;17300;50.374;8.006;2023-12-14T05:32:01;11.50;55.10
30520;DHT22;17300;50.374;8.006;2023-12-14T05:34:28;11.50;55.70
30520;DHT22;17300;50.374;8.006;2023-12-14T05:36:54;11.50;55.10
30520;DHT22;17300;50.374;8.006;2023-12-14T05:39:21;11.50;55.10
30520;DHT22;17300;50.374;8.006;2023-12-14T05:41:48;11.50;55.10
30520;DHT22;17300;50.374;8.006;2023-12-14T05:44:14;11.50;55.20
30520;DHT22;17300;50.374;8.006;2023-12-14T05:46:41;11.50;55.10
30520;DHT22;17300;50.374;8.006;2023-12-14T05:49:09;11.50;55.20
30520;DHT22;17300;50.374;8.006;2023-12-14T05:51:35;11.50;55.20
30520;DHT22;17300;50.374;8.006;2023-12-14T05:54:03;11.50;55.20
30520;DHT22;17300;50.374;8.006;2023-12-14T05:56:30;11.50;55.20
30520;DHT22;17300;50.374;8.006;2023-12-14T05:58:56;11.50;55.50
30520;DHT22;17300;50.374;8.006;2023-12-14T06:01:24;11.50;55.20
30520;DHT22;17300;50.374;8.006;2023-12-14T06:03:51;11.60;55.20
30520;DHT22;17300;50.374;8.006;2023-12-14T06:06:19;11.60;55.20
30520;DHT22;17300;50.374;8.006;2023-12-14T06:08:46;11.60;55.10
30520;DHT22;17300;50.374;8.006;2023-12-14T06:11:13;11.50;55.10
30520;DHT22;17300;50.374;8.006;2023-12-14T06:13:40;11.50;55.10
30520;DHT22;17300;50.374;8.006;2023-12-14T06:16:08;11.50;55.10
30520;DHT22;17300;50.374;8.006;2023-12-14T06:18:38;11.50;55.20
30520;DHT22;17300;50.374;8.006;2023-12-14T06:21:06;11.50;55.20
30520;DHT22;17300;50.374;8.006;2023-12-14T06:23:35;11.50;55.30
30520;DHT22;17300;50.374;8.006;2023-12-14T06:26:02;11.50;55.30
30520;DHT22;17300;50.374;8.006;2023-12-14T06:28:29;11.50;55.40
30520;DHT22;17300;50.374;8.006;2023-12-14T06:30:56;11.50;55.40
30520;DHT22;17300;50.374;8.006;2023-12-14T06:33:25;11.50;55.40
30520;DHT22;17300;50.374;8.006;2023-12-14T06:35:52;11.50;55.50
30520;DHT22;17300;50.374;8.006;2023-12-14T06:38:19;11.60;55.50
30520;DHT22;17300;50.374;8.006;2023-12-14T06:40:47;11.50;55.50
30520;DHT22;17300;50.374;8.006;2023-12-14T06:43:13;11.60;55.60
30520;DHT22;17300;50.374;8.006;2023-12-14T06:45:40;11.50;55.50
30520;DHT22;17300;50.374;8.006;2023-12-14T06:48:07;11.60;55.60
30520;DHT22;17300;50.374;8.006;2023-12-14T06:50:33;11.60;55.60
30520;DHT22;17300;50.374;8.006;2023-12-14T06:53:00;11.60;55.60
30520;DHT22;17300;50.374;8.006;2023-12-14T06:55:27;11.60;55.60
30520;DHT22;17300;50.374;8.006;2023-12-14T06:57:55;11.60;55.70
30520;DHT22;17300;50.374;8.006;2023-12-14T07:00:22;11.60;55.70
30520;DHT22;17300;50.374;8.006;2023-12-14T07:02:49;11.60;55.60
30520;DHT22;17300;50.374;8.006;2023-12-14T07:05:15;11.70;55.60
30520;DHT22;17300;50.374;8.006;2023-12-14T07:07:42;11.70;55.60
30520;DHT22;17300;50.374;8.006;2023-12-14T07:10:08;11.70;55.60
30520;DHT22;17300;50.374;8.006;2023-12-14T07:12:35;11.70;55.70
30520;DHT22;17300;50.374;8.006;2023-12-14T07:15:03;11.70;55.70
30520;DHT22;17300;50.374;8.006;2023-12-14T07:17:30;11.70;55.60
30520;DHT22;17300;50.374;8.006;2023-12-14T07:19:57;11.70;55.70
30520;DHT22;17300;50.374;8.006;2023-12-14T07:22:24;11.70;55.70
30520;DHT22;17300;50.374;8.006;2023-12-14T07:24:50;11.70;55.70
30520;DHT22;17300;50.374;8.006;2023-12-14T07:27:17;11.70;55.80
30520;DHT22;17300;50.374;8.006;2023-12-14T07:29:43;11.70;55.80
30520;DHT22;17300;50.374;8.006;2023-12-14T07:32:11;11.70;55.80
30520;DHT22;17300;50.374;8.006;2023-12-14T07:34:38;11.70;55.90
30520;DHT22;17300;50.374;8.006;2023-12-14T07:37:05;11.70;55.80
30520;DHT22;17300;50.374;8.006;2023-12-14T07:39:32;11.70;55.90
30520;DHT22;17300;50.374;8.006;2023-12-14T07:42:00;11.70;55.90
30520;DHT22;17300;50.374;8.006;2023-12-14T07:44:27;11.70;55.90
30520;DHT22;17300;50.374;8.006;2023-12-14T07:46:55;11.70;55.90
30520;DHT22;17300;50.374;8.006;2023-12-14T07:49:23;11.70;56.00
30520;DHT22;17300;50.374;8.006;2023-12-14T07:51:50;11.70;56.00
30520;DHT22;17300;50.374;8.006;2023-12-14T07:54:17;11.70;56.10
30520;DHT22;17300;50.374;8.006;2023-12-14T07:56:43;11.80;56.10
30520;DHT22;17300;50.374;8.006;2023-12-14T07:59:11;11.80;56.10
30520;DHT22;17300;50.374;8.006;2023-12-14T08:01:38;11.80;56.10
30520;DHT22;17300;50.374;8.006;2023-12-14T08:04:04;11.80;56.10
30520;DHT22;17300;50.374;8.006;2023-12-14T08:06:33;11.80;56.10
30520;DHT22;17300;50.374;8.006;2023-12-14T08:08:59;11.70;56.10
30520;DHT22;17300;50.374;8.006;2023-12-14T08:11:27;11.80;56.10
30520;DHT22;17300;50.374;8.006;2023-12-14T08:13:54;11.80;56.10
30520;DHT22;17300;50.374;8.006;2023-12-14T08:16:23;11.80;56.20
30520;DHT22;17300;50.374;8.006;2023-12-14T08:18:50;11.80;56.20
30520;DHT22;17300;50.374;8.006;2023-12-14T08:21:18;11.80;56.20
30520;DHT22;17300;50.374;8.006;2023-12-14T08:23:46;11.80;56.40
30520;DHT22;17300;50.374;8.006;2023-12-14T08:26:13;11.80;56.40
30520;DHT22;17300;50.374;8.006;2023-12-14T08:28:39;11.80;56.50
30520;DHT22;17300;50.374;8.006;2023-12-14T08:31:06;11.80;56.50
30520;DHT22;17300;50.374;8.006;2023-12-14T08:33:35;11.80;56.50
30520;DHT22;17300;50.374;8.006;2023-12-14T08:36:02;11.90;56.60
30520;DHT22;17300;50.374;8.006;2023-12-14T08:38:30;11.90;56.70
30520;DHT22;17300;50.374;8.006;2023-12-14T08:40:58;11.90;56.70
30520;DHT22;17300;50.374;8.006;2023-12-14T08:43:25;11.90;56.80
30520;DHT22;17300;50.374;8.006;2023-12-14T08:45:52;11.90;56.80
30520;DHT22;17300;50.374;8.006;2023-12-14T08:48:21;11.90;56.90
30520;DHT22;17300;50.374;8.006;2023-12-14T08:50:48;12.00;57.00
30520;DHT22;17300;50.374;8.006;2023-12-14T08:53:15;12.00;57.00
30520;DHT22;17300;50.374;8.006;2023-12-14T08:55:41;12.00;57.00
30520;DHT22;17300;50.374;8.006;2023-12-14T08:58:09;12.00;57.00
30520;DHT22;17300;50.374;8.006;2023-12-14T09:00:36;12.10;57.10
30520;DHT22;17300;50.374;8.006;2023-12-14T09:03:03;12.10;57.10
30520;DHT22;17300;50.374;8.006;2023-12-14T09:05:31;12.10;57.10
30520;DHT22;17300;50.374;8.006;2023-12-14T09:07:58;12.10;57.20
30520;DHT22;17300;50.374;8.006;2023-12-14T09:10:25;12.10;57.20
30520;DHT22;17300;50.374;8.006;2023-12-14T09:12:51;12.10;57.20
30520;DHT22;17300;50.374;8.006;2023-12-14T09:15:20;12.20;57.30
30520;DHT22;17300;50.374;8.006;2023-12-14T09:17:46;12.20;57.30
30520;DHT22;17300;50.374;8.006;2023-12-14T09:20:13;12.20;57.30
30520;DHT22;17300;50.374;8.006;2023-12-14T09:22:40;12.20;57.30
30520;DHT22;17300;50.374;8.006;2023-12-14T09:25:08;12.20;57.30
30520;DHT22;17300;50.374;8.006;2023-12-14T09:27:35;12.20;57.30
30520;DHT22;17300;50.374;8.006;2023-12-14T09:30:02;12.20;57.30
30520;DHT22;17300;50.374;8.006;2023-12-14T09:32:31;12.30;57.40
30520;DHT22;17300;50.374;8.006;2023-12-14T09:34:57;12.30;57.40
30520;DHT22;17300;50.374;8.006;2023-12-14T09:37:24;12.30;57.40
30520;DHT22;17300;50.374;8.006;2023-12-14T09:39:51;12.30;57.40
30520;DHT22;17300;50.374;8.006;2023-12-14T09:42:19;12.30;57.40
30520;DHT22;17300;50.374;8.006;2023-12-14T09:44:47;12.30;57.40
30520;DHT22;17300;50.374;8.006;2023-12-14T09:47:14;12.30;57.40
30520;DHT22;17300;50.374;8.006;2023-12-14T09:49:42;12.40;57.40
30520;DHT22;17300;50.374;8.006;2023-12-14T09:52:09;12.40;57.50
30520;DHT22;17300;50.374;8.006;2023-12-14T09:54:36;12.40;57.40
30520;DHT22;17300;50.374;8.006;2023-12-14T09:57:03;12.40;57.50
30520;DHT22;17300;50.374;8.006;2023-12-14T09:59:30;12.50;57.60
30520;DHT22;17300;50.374;8.006;2023-12-14T10:02:09;12.50;57.60
30520;DHT22;17300;50.374;8.006;2023-12-14T10:04:36;12.50;57.70
30520;DHT22;17300;50.374;8.006;2023-12-14T10:07:05;12.50;57.60
30520;DHT22;17300;50.374;8.006;2023-12-14T10:09:33;12.50;57.60
30520;DHT22;17300;50.374;8.006;2023-12-14T10:12:03;12.60;57.70
30520;DHT22;17300;50.374;8.006;2023-12-14T10:14:30;12.60;57.70
30520;DHT22;17300;50.374;8.006;2023-12-14T10:16:58;12.60;57.70
30520;DHT22;17300;50.374;8.006;2023-12-14T10:19:25;12.60;57.70
30520;DHT22;17300;50.374;8.006;2023-12-14T10:21:52;12.70;57.70
30520;DHT22;17300;50.374;8.006;2023-12-14T10:24:20;12.60;57.60
30520;DHT22;17300;50.374;8.006;2023-12-14T10:26:47;12.70;57.70
30520;DHT22;17300;50.374;8.006;2023-12-14T10:29:14;12.70;57.70
30520;DHT22;17300;50.374;8.006;2023-12-14T10:31:42;12.70;57.60
30520;DHT22;17300;50.374;8.006;2023-12-14T10:34:09;12.70;57.60
30520;DHT22;17300;50.374;8.006;2023-12-14T10:36:37;12.70;57.50
30520;DHT22;17300;50.374;8.006;2023-12-14T10:39:04;12.70;57.40
30520;DHT22;17300;50.374;8.006;2023-12-14T10:41:36;12.70;58.00
30520;DHT22;17300;50.374;8.006;2023-12-14T10:44:03;12.70;57.40
30520;DHT22;17300;50.374;8.006;2023-12-14T10:46:31;12.60;57.20
30520;DHT22;17300;50.374;8.006;2023-12-14T10:48:58;12.70;57.40
30520;DHT22;17300;50.374;8.006;2023-12-14T10:51:27;12.70;57.40
30520;DHT22;17300;50.374;8.006;2023-12-14T10:53:55;12.70;57.40
30520;DHT22;17300;50.374;8.006;2023-12-14T10:56:23;12.70;57.40
30520;DHT22;17300;50.374;8.006;2023-12-14T10:58:53;12.70;57.40
30520;DHT22;17300;50.374;8.006;2023-12-14T11:01:25;12.70;57.40
30520;DHT22;17300;50.374;8.006;2023-12-14T11:03:54;12.70;57.30
30520;DHT22;17300;50.374;8.006;2023-12-14T11:06:28;12.70;57.20
30520;DHT22;17300;50.374;8.006;2023-12-14T11:08:59;12.70;57.20
30520;DHT22;17300;50.374;8.006;2023-12-14T11:11:29;12.70;57.20
30520;DHT22;17300;50.374;8.006;2023-12-14T11:13:57;12.60;57.00
30520;DHT22;17300;50.374;8.006;2023-12-14T11:16:26;12.70;57.00
30520;DHT22;17300;50.374;8.006;2023-12-14T11:19:25;12.60;57.00
30520;DHT22;17300;50.374;8.006;2023-12-14T11:22:10;12.60;57.00
30520;DHT22;17300;50.374;8.006;2023-12-14T11:24:37;12.60;56.90
30520;DHT22;17300;50.374;8.006;2023-12-14T11:27:07;12.60;56.90
30520;DHT22;17300;50.374;8.006;2023-12-14T11:29:38;12.60;56.90
30520;DHT22;17300;50.374;8.006;2023-12-14T11:32:07;12.60;57.00
30520;DHT22;17300;50.374;8.006;2023-12-14T11:34:32;12.60;56.90
30520;DHT22;17300;50.374;8.006;2023-12-14T11:36:59;12.60;56.90
30520;DHT22;17300;50.374;8.006;2023-12-14T11:39:30;12.60;56.90
30520;DHT22;17300;50.374;8.006;2023-12-14T11:42:03;12.60;57.00
30520;DHT22;17300;50.374;8.006;2023-12-14T11:44:30;12.50;57.00
30520;DHT22;17300;50.374;8.006;2023-12-14T11:46:58;12.60;57.00
30520;DHT22;17300;50.374;8.006;2023-12-14T11:49:25;12.60;57.00
30520;DHT22;17300;50.374;8.006;2023-12-14T11:51:52;12.60;57.00
30520;DHT22;17300;50.374;8.006;2023-12-14T11:54:19;12.60;56.90
30520;DHT22;17300;50.374;8.006;2023-12-14T11:56:47;12.60;56.90
30520;DHT22;17300;50.374;8.006;2023-12-14T11:59:15;12.60;56.90
30520;DHT22;17300;50.374;8.006;2023-12-14T12:01:54;12.60;56.90
30520;DHT22;17300;50.374;8.006;2023-12-14T12:04:23;12.60;56.90
30520;DHT22;17300;50.374;8.006;2023-12-14T12:06:50;12.60;56.90
30520;DHT22;17300;50.374;8.006;2023-12-14T12:09:35;12.60;56.90
30520;DHT22;17300;50.374;8.006;2023-12-14T12:12:04;12.60;56.90
30520;DHT22;17300;50.374;8.006;2023-12-14T12:14:31;12.60;56.90
30520;DHT22;17300;50.374;8.006;2023-12-14T12:16:58;12.60;56.90
30520;DHT22;17300;50.374;8.006;2023-12-14T12:19:26;12.60;56.90
30520;DHT22;17300;50.374;8.006;2023-12-14T12:21:53;12.60;56.80
30520;DHT22;17300;50.374;8.006;2023-12-14T12:24:21;12.60;56.80
30520;DHT22;17300;50.374;8.006;2023-12-14T12:26:47;12.70;56.90
30520;DHT22;17300;50.374;8.006;2023-12-14T12:29:14;12.60;56.80
30520;DHT22;17300;50.374;8.006;2023-12-14T12:31:41;12.60;56.80
30520;DHT22;17300;50.374;8.006;2023-12-14T12:34:08;12.70;56.80
30520;DHT22;17300;50.374;8.006;2023-12-14T12:36:36;12.60;56.70
30520;DHT22;17300;50.374;8.006;2023-12-14T12:39:03;12.70;56.70
30520;DHT22;17300;50.374;8.006;2023-12-14T12:41:31;12.60;56.60
30520;DHT22;17300;50.374;8.006;2023-12-14T12:43:58;12.70;56.60
30520;DHT22;17300;50.374;8.006;2023-12-14T12:46:31;12.70;56.60
30520;DHT22;17300;50.374;8.006;2023-12-14T12:48:57;12.60;56.50
30520;DHT22;17300;50.374;8.006;2023-12-14T12:51:24;12.70;56.50
30520;DHT22;17300;50.374;8.006;2023-12-14T12:53:53;12.60;56.50
30520;DHT22;17300;50.374;8.006;2023-12-14T12:56:20;12.60;56.50
30520;DHT22;17300;50.374;8.006;2023-12-14T12:58:50;12.60;56.50
30520;DHT22;17300;50.374;8.006;2023-12-14T13:01:19;12.60;56.50
30520;DHT22;17300;50.374;8.006;2023-12-14T13:03:46;12.60;56.40
30520;DHT22;17300;50.374;8.006;2023-12-14T13:06:13;12.60;56.40
30520;DHT22;17300;50.374;8.006;2023-12-14T13:08:40;12.60;56.40
30520;DHT22;17300;50.374;8.006;2023-12-14T13:11:08;12.60;56.60
30520;DHT22;17300;50.374;8.006;2023-12-14T13:13:34;12.60;56.60
30520;DHT22;17300;50.374;8.006;2023-12-14T13:16:01;12.60;56.50
30520;DHT22;17300;50.374;8.006;2023-12-14T13:18:28;12.70;56.60
30520;DHT22;17300;50.374;8.006;2023-12-14T13:20:54;12.60;56.40
30520;DHT22;17300;50.374;8.006;2023-12-14T13:23:21;12.60;56.40
30520;DHT22;17300;50.374;8.006;2023-12-14T13:25:48;12.60;56.30
30520;DHT22;17300;50.374;8.006;2023-12-14T13:28:16;12.60;56.20
30520;DHT22;17300;50.374;8.006;2023-12-14T13:30:42;12.60;56.20
30520;DHT22;17300;50.374;8.006;2023-12-14T13:33:09;12.60;56.20
30520;DHT22;17300;50.374;8.006;2023-12-14T13:35:37;12.60;56.10
30520;DHT22;17300;50.374;8.006;2023-12-14T13:38:04;12.70;56.10
30520;DHT22;17300;50.374;8.006;2023-12-14T13:40:31;12.60;55.90
30520;DHT22;17300;50.374;8.006;2023-12-14T13:42:57;12.60;55.90
30520;DHT22;17300;50.374;8.006;2023-12-14T13:45:30;12.60;55.90
30520;DHT22;17300;50.374;8.006;2023-12-14T13:47:57;12.60;55.80
30520;DHT22;17300;50.374;8.006;2023-12-14T13:50:23;12.60;55.80
30520;DHT22;17300;50.374;8.006;2023-12-14T13:52:51;12.60;55.70
30520;DHT22;17300;50.374;8.006;2023-12-14T13:55:18;12.60;55.80
30520;DHT22;17300;50.374;8.006;2023-12-14T13:57:45;12.60;55.70
30520;DHT22;17300;50.374;8.006;2023-12-14T14:00:14;12.60;55.70
30520;DHT22;17300;50.374;8.006;2023-12-14T14:02:42;12.60;55.60
30520;DHT22;17300;50.374;8.006;2023-12-14T14:05:09;12.50;55.50
30520;DHT22;17300;50.374;8.006;2023-12-14T14:07:36;12.60;55.60
30520;DHT22;17300;50.374;8.006;2023-12-14T14:10:03;12.50;56.20
30520;DHT22;17300;50.374;8.006;2023-12-14T14:12:30;12.50;55.60
30520;DHT22;17300;50.374;8.006;2023-12-14T14:14:57;12.50;55.60
30520;DHT22;17300;50.374;8.006;2023-12-14T14:17:24;12.50;55.60
30520;DHT22;17300;50.374;8.006;2023-12-14T14:19:52;12.60;55.60
30520;DHT22;17300;50.374;8.006;2023-12-14T14:22:18;12.50;55.50
30520;DHT22;17300;50.374;8.006;2023-12-14T14:24:46;12.50;55.40
30520;DHT22;17300;50.374;8.006;2023-12-14T14:27:13;12.50;55.30
30520;DHT22;17300;50.374;8.006;2023-12-14T14:29:40;12.50;55.80
30520;DHT22;17300;50.374;8.006;2023-12-14T14:32:07;12.50;55.30
30520;DHT22;17300;50.374;8.006;2023-12-14T14:34:33;12.40;55.20
30520;DHT22;17300;50.374;8.006;2023-12-14T14:37:02;12.40;55.30
30520;DHT22;17300;50.374;8.006;2023-12-14T14:39:29;12.40;55.30
30520;DHT22;17300;50.374;8.006;2023-12-14T14:41:56;12.40;55.30
30520;DHT22;17300;50.374;8.006;2023-12-14T14:44:23;12.40;55.20
30520;DHT22;17300;50.374;8.006;2023-12-14T14:46:50;12.40;55.20
30520;DHT22;17300;50.374;8.006;2023-12-14T14:49:18;12.40;55.10
30520;DHT22;17300;50.374;8.006;2023-12-14T14:51:44;12.40;55.10
30520;DHT22;17300;50.374;8.006;2023-12-14T14:54:12;12.40;55.10
30520;DHT22;17300;50.374;8.006;2023-12-14T14:56:40;12.30;55.00
30520;DHT22;17300;50.374;8.006;2023-12-14T14:59:06;12.30;55.00
30520;DHT22;17300;50.374;8.006;2023-12-14T15:01:34;12.30;55.00
30520;DHT22;17300;50.374;8.006;2023-12-14T15:04:01;12.30;55.10
30520;DHT22;17300;50.374;8.006;2023-12-14T15:06:28;12.30;55.00
30520;DHT22;17300;50.374;8.006;2023-12-14T15:08:53;12.30;54.80
30520;DHT22;17300;50.374;8.006;2023-12-14T15:11:21;12.30;54.90
30520;DHT22;17300;50.374;8.006;2023-12-14T15:13:48;12.20;54.90
30520;DHT22;17300;50.374;8.006;2023-12-14T15:16:15;12.20;55.00
30520;DHT22;17300;50.374;8.006;2023-12-14T15:18:43;12.20;55.00
30520;DHT22;17300;50.374;8.006;2023-12-14T15:21:10;12.20;55.10
30520;DHT22;17300;50.374;8.006;2023-12-14T15:23:37;12.20;55.20
30520;DHT22;17300;50.374;8.006;2023-12-14T15:26:05;12.10;55.20
30520;DHT22;17300;50.374;8.006;2023-12-14T15:28:46;12.10;55.30
30520;DHT22;17300;50.374;8.006;2023-12-14T15:31:14;12.20;55.40